createdAt,value
2019-03-22T00:02:18.904Z,18.10
2019-03-22T00:04:48.044Z,18.10
2019-03-22T00:07:17.585Z,18.10
2019-03-22T00:09:46.703Z,18.10
2019-03-22T00:12:15.888Z,18.00
2019-03-22T00:14:45.099Z,18.10
2019-03-22T00:17:14.209Z,18.10
2019-03-22T00:19:43.492Z,18.10
2019-03-22T00:22:12.601Z,18.10
2019-03-22T00:24:41.703Z,18.10
2019-03-22T00:27:16.547Z,18.10
2019-03-22T00:29:41.819Z,18.10
2019-03-22T00:42:01.792Z,18.00
2019-03-22T00:50:49.905Z,18.00
2019-03-22T00:53:30.885Z,18.00
2019-03-22T00:56:11.630Z,17.90
2019-03-22T00:58:52.302Z,17.90
2019-03-22T01:01:32.999Z,18.00
2019-03-22T01:04:13.681Z,18.00
2019-03-22T01:06:43.477Z,18.00
2019-03-22T01:12:41.266Z,17.90
2019-03-22T01:15:30.052Z,18.00
2019-03-22T01:18:18.805Z,18.00
2019-03-22T01:21:07.343Z,18.00
2019-03-22T01:23:55.934Z,18.00
2019-03-22T01:26:44.453Z,17.90
2019-03-22T01:29:33.003Z,18.00
2019-03-22T01:32:21.268Z,17.90
2019-03-22T01:35:09.490Z,17.90
2019-03-22T01:37:58.168Z,18.00
2019-03-22T01:40:46.643Z,18.00
2019-03-22T01:46:42.734Z,17.90
2019-03-22T01:49:31.309Z,17.90
2019-03-22T01:52:19.593Z,17.90
2019-03-22T01:55:08.399Z,17.90
2019-03-22T01:57:57.249Z,17.90
2019-03-22T02:00:45.800Z,17.90
2019-03-22T02:03:34.865Z,17.90
2019-03-22T02:06:23.108Z,17.90
2019-03-22T02:09:11.342Z,17.80
2019-03-22T02:11:59.568Z,17.80
2019-03-22T02:14:48.082Z,17.90
2019-03-22T02:17:36.603Z,17.90
2019-03-22T02:20:24.861Z,17.90
2019-03-22T02:23:13.359Z,17.90
2019-03-22T02:26:01.708Z,17.80
2019-03-22T02:28:49.906Z,17.70
2019-03-22T02:31:38.435Z,17.60
2019-03-22T02:34:26.812Z,17.70
2019-03-22T02:37:15.076Z,17.70
2019-03-22T02:39:56.031Z,17.70
2019-03-22T02:42:36.987Z,17.80
2019-03-22T02:45:17.743Z,17.80
2019-03-22T02:47:58.768Z,17.70
2019-03-22T02:50:39.723Z,17.80
2019-03-22T02:53:21.099Z,17.70
2019-03-22T02:56:01.817Z,17.70
2019-03-22T02:58:43.242Z,17.70
2019-03-22T03:01:24.217Z,17.70
2019-03-22T03:04:05.417Z,17.70
2019-03-22T03:06:45.828Z,17.70
2019-03-22T03:09:26.522Z,17.70
2019-03-22T03:12:07.321Z,17.70
2019-03-22T03:14:48.130Z,17.60
2019-03-22T03:17:29.002Z,17.60
2019-03-22T03:20:09.935Z,17.70
2019-03-22T03:22:50.571Z,17.60
2019-03-22T03:25:31.440Z,17.60
2019-03-22T03:28:12.230Z,17.60
2019-03-22T03:30:53.048Z,17.60
2019-03-22T03:33:33.946Z,17.60
2019-03-22T03:36:14.480Z,17.60
2019-03-22T03:38:55.814Z,17.60
2019-03-22T03:41:36.751Z,17.60
2019-03-22T03:44:18.143Z,17.60
2019-03-22T03:46:58.862Z,17.60
2019-03-22T03:49:39.394Z,17.60
2019-03-22T03:55:32.041Z,17.60
2019-03-22T03:58:12.465Z,17.60
2019-03-22T04:00:53.264Z,17.60
2019-03-22T04:03:34.311Z,17.50
2019-03-22T04:06:15.296Z,17.60
2019-03-22T04:08:56.340Z,17.60
2019-03-22T04:11:37.256Z,17.60
2019-03-22T04:14:17.647Z,17.60
2019-03-22T04:16:59.089Z,17.50
2019-03-22T04:19:40.584Z,17.50
2019-03-22T04:25:04.032Z,17.50
2019-03-22T04:27:45.075Z,17.50
2019-03-22T04:30:25.888Z,17.40
2019-03-22T04:33:07.165Z,17.50
2019-03-22T04:35:47.794Z,17.50
2019-03-22T04:38:28.806Z,17.50
2019-03-22T04:44:06.398Z,17.40
2019-03-22T04:46:47.461Z,17.40
2019-03-22T04:49:27.908Z,17.50
2019-03-22T04:52:08.571Z,17.40
2019-03-22T04:54:49.647Z,17.30
2019-03-22T04:57:30.885Z,17.40
2019-03-22T05:00:11.415Z,17.40
2019-03-22T05:02:52.062Z,17.40
2019-03-22T05:05:33.095Z,17.30
2019-03-22T05:08:14.252Z,17.40
2019-03-22T05:11:00.207Z,17.40
2019-03-22T05:13:39.205Z,17.40
2019-03-22T05:16:56.471Z,17.40
2019-03-22T05:22:26.237Z,17.40
2019-03-22T05:25:14.551Z,17.40
2019-03-22T05:28:03.460Z,17.40
2019-03-22T05:31:10.738Z,17.30
2019-03-22T05:37:17.752Z,17.30
2019-03-22T05:40:03.062Z,17.30
2019-03-22T05:42:56.683Z,17.40
2019-03-22T05:45:26.875Z,17.30
2019-03-22T05:50:53.220Z,17.40
2019-03-22T05:57:12.828Z,17.40
2019-03-22T05:59:53.630Z,17.40
2019-03-22T06:02:42.091Z,17.30
2019-03-22T06:05:30.823Z,17.30
2019-03-22T06:08:19.431Z,17.40
2019-03-22T06:11:07.909Z,17.40
2019-03-22T06:13:56.395Z,17.40
2019-03-22T06:16:44.591Z,17.40
2019-03-22T06:19:32.896Z,17.50
2019-03-22T06:22:21.639Z,17.50
2019-03-22T06:25:09.847Z,17.40
2019-03-22T06:27:58.750Z,17.50
2019-03-22T06:30:47.011Z,17.50
2019-03-22T06:33:35.954Z,17.50
2019-03-22T06:36:24.320Z,17.50
2019-03-22T06:39:05.368Z,17.50
2019-03-22T06:41:47.071Z,17.50
2019-03-22T06:44:28.011Z,17.50
2019-03-22T06:47:11.133Z,17.60
2019-03-22T06:49:52.172Z,17.60
2019-03-22T06:52:34.462Z,17.60
2019-03-22T06:55:15.666Z,17.60
2019-03-22T06:57:56.539Z,17.70
2019-03-22T07:00:37.205Z,17.70
2019-03-22T07:03:18.032Z,17.70
2019-03-22T07:05:59.287Z,17.80
2019-03-22T07:08:41.563Z,17.80
2019-03-22T07:11:22.560Z,17.80
2019-03-22T07:14:03.668Z,17.80
2019-03-22T07:16:44.880Z,17.90
2019-03-22T07:19:25.356Z,17.90
2019-03-22T07:22:06.240Z,18.00
2019-03-22T07:24:47.032Z,18.00
2019-03-22T07:27:28.248Z,18.00
2019-03-22T07:30:18.014Z,18.00
2019-03-22T07:32:52.158Z,18.10
2019-03-22T07:35:33.132Z,18.10
2019-03-22T07:38:14.147Z,18.10
2019-03-22T07:40:54.891Z,18.10
2019-03-22T07:43:36.415Z,18.20
2019-03-22T07:46:16.932Z,18.30
2019-03-22T07:48:57.574Z,18.40
2019-03-22T07:51:38.964Z,18.40
2019-03-22T07:54:19.599Z,18.50
2019-03-22T07:57:00.770Z,18.50
2019-03-22T07:59:41.832Z,18.70
2019-03-22T08:02:22.311Z,18.70
2019-03-22T08:05:03.352Z,18.90
2019-03-22T08:07:44.446Z,19.00
2019-03-22T08:10:25.988Z,19.10
2019-03-22T08:13:06.898Z,19.30
2019-03-22T08:15:48.515Z,19.50
2019-03-22T08:18:29.824Z,19.60
2019-03-22T08:21:10.880Z,19.80
2019-03-22T08:23:51.590Z,20.00
2019-03-22T08:26:33.258Z,20.10
2019-03-22T08:29:14.300Z,20.20
2019-03-22T08:31:55.800Z,20.20
2019-03-22T08:34:37.432Z,20.30
2019-03-22T08:37:18.189Z,20.50
2019-03-22T08:39:58.699Z,20.50
2019-03-22T08:42:29.117Z,20.60
2019-03-22T08:45:17.685Z,20.80
2019-03-22T08:48:05.948Z,21.00
2019-03-22T08:50:54.271Z,21.20
2019-03-22T08:53:54.636Z,21.50
2019-03-22T08:56:32.643Z,21.60
2019-03-22T08:59:20.937Z,21.70
2019-03-22T09:01:51.008Z,21.80
2019-03-22T09:04:20.223Z,22.10
2019-03-22T09:06:52.547Z,22.10
2019-03-22T09:09:22.029Z,22.20
2019-03-22T09:12:02.395Z,22.40
2019-03-22T09:14:55.569Z,22.70
2019-03-22T09:17:46.540Z,22.80
2019-03-22T09:28:51.085Z,23.80
2019-03-22T09:31:39.382Z,23.90
2019-03-22T09:34:33.612Z,24.20
2019-03-22T09:39:39.256Z,24.60
2019-03-22T09:42:20.321Z,24.90
2019-03-22T09:45:01.055Z,25.20
2019-03-22T09:47:42.031Z,25.50
2019-03-22T09:50:22.524Z,25.70
2019-03-22T09:53:03.848Z,25.90
2019-03-22T09:55:45.051Z,26.20
2019-03-22T09:58:26.430Z,26.50
2019-03-22T10:01:07.121Z,26.60
2019-03-22T10:03:47.618Z,26.80
2019-03-22T10:06:28.464Z,27.00
2019-03-22T10:09:09.095Z,27.30
2019-03-22T10:11:49.719Z,27.50
2019-03-22T10:14:31.486Z,27.80
2019-03-22T10:17:12.084Z,28.10
2019-03-22T10:19:42.241Z,28.40
2019-03-22T10:22:31.666Z,28.60
2019-03-22T10:25:28.526Z,28.90
2019-03-22T10:28:11.380Z,29.10
2019-03-22T10:31:12.920Z,29.30
2019-03-22T10:34:02.476Z,29.40
2019-03-22T10:36:32.321Z,29.70
2019-03-22T10:42:18.274Z,30.10
2019-03-22T10:44:56.971Z,30.30
2019-03-22T10:47:32.338Z,30.60
2019-03-22T10:50:04.272Z,30.70
2019-03-22T10:52:35.287Z,30.90
2019-03-22T10:55:23.098Z,31.10
2019-03-22T10:57:56.475Z,31.30
2019-03-22T11:01:27.109Z,31.50
2019-03-22T11:04:10.636Z,31.70
2019-03-22T11:06:59.396Z,32.00
2019-03-22T11:09:39.229Z,32.20
2019-03-22T11:12:12.375Z,32.40
2019-03-22T11:14:42.883Z,32.60
2019-03-22T11:17:46.018Z,32.80
2019-03-22T11:20:07.198Z,33.00
2019-03-22T11:23:01.551Z,33.20
2019-03-22T11:25:32.083Z,33.40
2019-03-22T11:28:02.028Z,33.60
2019-03-22T11:30:31.312Z,34.20
2019-03-22T11:33:00.588Z,36.00
2019-03-22T11:35:30.254Z,37.40
2019-03-22T11:38:00.039Z,38.60
2019-03-22T11:40:29.533Z,39.60
2019-03-22T11:43:07.981Z,40.70
2019-03-22T11:45:31.007Z,41.40
2019-03-22T11:48:00.610Z,42.00
2019-03-22T11:50:29.975Z,42.90
2019-03-22T11:53:34.548Z,43.80
2019-03-22T11:56:03.719Z,44.70
2019-03-22T11:58:32.937Z,45.50
2019-03-22T12:01:02.195Z,46.00
2019-03-22T12:03:31.476Z,46.30
2019-03-22T12:06:00.694Z,46.90
2019-03-22T12:08:29.903Z,47.10
2019-03-22T12:11:18.222Z,47.80
2019-03-22T12:13:47.450Z,48.20
2019-03-22T12:16:16.696Z,49.00
2019-03-22T12:18:46.612Z,49.70
2019-03-22T12:21:16.340Z,50.00
2019-03-22T12:23:45.722Z,49.90
2019-03-22T12:26:15.344Z,50.20
2019-03-22T12:28:45.038Z,50.40
2019-03-22T12:31:14.765Z,51.10
2019-03-22T12:33:44.623Z,50.90
2019-03-22T12:36:13.928Z,51.00
2019-03-22T12:38:43.542Z,51.70
2019-03-22T12:41:13.197Z,52.20
2019-03-22T12:43:43.113Z,52.60
2019-03-22T12:46:13.408Z,52.60
2019-03-22T12:48:43.089Z,52.50
2019-03-22T12:51:13.259Z,53.70
2019-03-22T12:53:44.051Z,54.60
2019-03-22T12:59:28.132Z,55.50
2019-03-22T13:02:16.690Z,55.90
2019-03-22T13:05:05.481Z,56.00
2019-03-22T13:07:54.442Z,56.20
2019-03-22T13:13:37.003Z,56.10
2019-03-22T13:16:25.810Z,56.10
2019-03-22T13:19:14.010Z,55.90
2019-03-22T13:22:02.266Z,55.50
2019-03-22T13:24:50.763Z,55.80
2019-03-22T13:27:39.611Z,55.80
2019-03-22T13:30:47.095Z,56.00
2019-03-22T13:33:35.350Z,55.70
2019-03-22T13:36:23.905Z,55.80
2019-03-22T13:39:12.182Z,56.10
2019-03-22T13:42:00.794Z,56.20
2019-03-22T13:44:49.409Z,55.80
2019-03-22T13:47:38.144Z,56.10
2019-03-22T13:50:26.385Z,55.80
2019-03-22T13:56:22.149Z,55.30
2019-03-22T13:59:10.394Z,55.20
2019-03-22T14:05:14.472Z,55.00
2019-03-22T14:08:03.054Z,52.40
2019-03-22T14:10:51.595Z,50.00
2019-03-22T14:13:40.123Z,48.40
2019-03-22T14:16:28.338Z,46.90
2019-03-22T14:19:16.951Z,46.10
2019-03-22T14:22:08.855Z,44.80
2019-03-22T14:24:57.414Z,44.00
2019-03-22T14:27:46.151Z,43.40
2019-03-22T14:30:34.370Z,44.30
2019-03-22T14:33:22.590Z,46.20
2019-03-22T14:36:11.122Z,47.80
2019-03-22T14:38:59.361Z,49.10
2019-03-22T14:41:40.039Z,50.00
2019-03-22T14:44:25.556Z,50.80
2019-03-22T14:46:53.354Z,51.20
2019-03-22T14:53:00.046Z,51.70
2019-03-22T14:55:48.542Z,51.60
2019-03-22T14:58:37.347Z,51.70
2019-03-22T15:01:25.558Z,51.60
2019-03-22T15:04:14.047Z,51.50
2019-03-22T15:07:02.532Z,51.10
2019-03-22T15:09:51.050Z,50.50
2019-03-22T15:12:39.327Z,50.10
2019-03-22T15:15:46.611Z,50.00
2019-03-22T15:18:46.310Z,49.40
2019-03-22T15:21:54.119Z,48.80
2019-03-22T15:25:01.928Z,48.00
2019-03-22T15:28:03.832Z,45.60
2019-03-22T15:31:11.414Z,43.60
2019-03-22T15:34:18.946Z,42.10
2019-03-22T15:37:26.369Z,41.20
2019-03-22T15:40:07.131Z,42.10
2019-03-22T15:42:48.547Z,42.60
2019-03-22T15:45:30.328Z,42.90
2019-03-22T15:48:11.363Z,43.20
2019-03-22T15:50:52.072Z,43.30
2019-03-22T15:53:33.574Z,43.20
2019-03-22T15:56:14.471Z,42.80
2019-03-22T15:58:55.472Z,41.80
2019-03-22T16:01:24.658Z,40.20
2019-03-22T16:04:12.942Z,38.80
2019-03-22T16:07:01.171Z,37.70
2019-03-22T16:09:49.419Z,36.70
2019-03-22T16:12:37.643Z,35.60
2019-03-22T16:15:26.147Z,35.00
2019-03-22T16:18:14.347Z,34.30
2019-03-22T16:21:02.613Z,33.70
2019-03-22T16:23:50.831Z,33.30
2019-03-22T16:26:39.621Z,33.10
2019-03-22T16:29:28.381Z,32.60
2019-03-22T16:32:16.649Z,32.40
2019-03-22T16:35:05.703Z,32.10
2019-03-22T16:37:53.934Z,31.90
2019-03-22T16:40:34.647Z,31.60
2019-03-22T16:43:15.934Z,31.40
2019-03-22T16:45:56.931Z,31.10
2019-03-22T16:48:37.851Z,31.00
2019-03-22T16:51:19.234Z,30.70
2019-03-22T16:54:00.841Z,30.60
2019-03-22T16:56:41.724Z,30.40
2019-03-22T16:59:22.980Z,30.20
2019-03-22T17:02:04.067Z,30.10
2019-03-22T17:04:45.055Z,29.90
2019-03-22T17:07:25.519Z,29.80
2019-03-22T17:10:06.309Z,29.60
2019-03-22T17:12:47.275Z,29.40
2019-03-22T17:15:27.947Z,29.30
2019-03-22T17:18:08.676Z,29.20
2019-03-22T17:20:49.663Z,26.80
2019-03-22T17:23:30.513Z,25.60
2019-03-22T17:26:11.459Z,24.70
2019-03-22T17:28:51.879Z,24.80
2019-03-22T17:31:32.982Z,24.60
2019-03-22T17:34:14.375Z,24.60
2019-03-22T17:36:55.947Z,24.30
2019-03-22T17:39:36.764Z,24.00
2019-03-22T17:42:17.533Z,23.50
2019-03-22T17:44:58.288Z,23.30
2019-03-22T17:47:39.231Z,23.50
2019-03-22T17:53:06.940Z,23.60
2019-03-22T17:55:36.435Z,23.50
2019-03-22T17:58:06.349Z,23.50
2019-03-22T18:00:54.690Z,23.40
2019-03-22T18:03:42.999Z,23.30
2019-03-22T18:06:12.486Z,23.30
2019-03-22T18:09:01.094Z,23.20
2019-03-22T18:11:49.587Z,23.20
2019-03-22T18:14:37.858Z,23.10
2019-03-22T18:17:26.343Z,23.00
2019-03-22T18:19:55.538Z,23.00
2019-03-22T18:22:43.826Z,22.90
2019-03-22T18:25:32.050Z,22.90
2019-03-22T18:28:20.639Z,22.90
2019-03-22T18:31:09.167Z,22.80
2019-03-22T18:33:58.062Z,22.80
2019-03-22T18:36:47.028Z,22.70
2019-03-22T18:39:35.541Z,22.60
2019-03-22T18:42:16.184Z,22.50
2019-03-22T18:44:56.779Z,22.40
2019-03-22T18:47:37.823Z,22.40
2019-03-22T18:50:19.032Z,22.60
2019-03-22T18:53:00.126Z,22.90
2019-03-22T18:55:41.094Z,23.10
2019-03-22T18:58:23.718Z,23.20
2019-03-22T19:01:04.807Z,23.30
2019-03-22T19:06:35.483Z,23.50
2019-03-22T19:09:16.077Z,23.50
2019-03-22T19:11:56.711Z,23.50
2019-03-22T19:14:37.702Z,23.50
2019-03-22T19:17:09.112Z,23.60
2019-03-22T19:19:38.347Z,23.50
2019-03-22T19:22:07.559Z,23.50
2019-03-22T19:24:36.818Z,23.50
2019-03-22T19:27:06.163Z,23.50
2019-03-22T19:29:35.532Z,23.50
2019-03-22T19:32:13.347Z,23.50
2019-03-22T19:34:54.883Z,23.50
2019-03-22T19:37:24.091Z,23.50
2019-03-22T19:39:53.303Z,23.50
2019-03-22T19:42:22.584Z,23.40
2019-03-22T19:44:52.556Z,23.40
2019-03-22T19:47:22.011Z,23.40
2019-03-22T19:49:51.197Z,23.40
2019-03-22T19:52:20.396Z,23.30
2019-03-22T19:54:49.855Z,23.30
2019-03-22T19:57:19.314Z,23.30
2019-03-22T19:59:49.031Z,23.30
2019-03-22T20:02:37.510Z,23.20
2019-03-22T20:05:29.511Z,23.20
2019-03-22T20:07:58.679Z,23.20
2019-03-22T20:10:27.851Z,23.10
2019-03-22T20:12:57.107Z,23.10
2019-03-22T20:15:26.323Z,23.10
2019-03-22T20:17:55.536Z,23.10
2019-03-22T20:20:25.029Z,23.10
2019-03-22T20:22:55.220Z,23.00
2019-03-22T20:25:25.106Z,23.00
2019-03-22T20:28:13.638Z,23.00
2019-03-22T20:31:02.395Z,22.90
2019-03-22T20:33:36.345Z,22.90
2019-03-22T20:36:06.192Z,22.90
2019-03-22T20:38:37.784Z,22.80
2019-03-22T20:41:23.017Z,22.80
2019-03-22T20:43:52.239Z,22.80
2019-03-22T20:46:28.756Z,22.70
2019-03-22T20:49:15.716Z,22.70
2019-03-22T20:51:45.370Z,22.70
2019-03-22T20:54:14.967Z,22.60
2019-03-22T20:57:03.444Z,22.60
2019-03-22T20:59:32.869Z,22.60
2019-03-22T21:02:21.641Z,22.70
2019-03-22T21:04:51.019Z,23.20
2019-03-22T21:07:20.369Z,23.50
2019-03-22T21:09:49.801Z,23.60
2019-03-22T21:12:19.252Z,23.70
2019-03-22T21:14:48.830Z,23.80
2019-03-22T21:17:19.428Z,23.90
2019-03-22T21:19:49.051Z,23.90
2019-03-22T21:22:37.886Z,24.00
2019-03-22T21:25:07.174Z,24.00
2019-03-22T21:27:37.665Z,24.00
2019-03-22T21:30:25.957Z,24.00
2019-03-22T21:33:14.326Z,24.00
2019-03-22T21:35:43.561Z,24.10
2019-03-22T21:38:12.761Z,24.10
2019-03-22T21:40:42.153Z,24.10
2019-03-22T21:43:22.556Z,24.00
2019-03-22T21:45:52.101Z,24.10
2019-03-22T21:48:40.870Z,24.10
2019-03-22T21:51:29.517Z,24.10
2019-03-22T21:54:18.316Z,24.00
2019-03-22T21:57:06.595Z,24.00
2019-03-22T21:59:54.853Z,24.10
2019-03-22T22:02:44.028Z,24.10
2019-03-22T22:05:32.560Z,24.10
2019-03-22T22:08:01.884Z,24.10
2019-03-22T22:10:59.398Z,24.10
2019-03-22T22:13:22.503Z,24.10
2019-03-22T22:15:52.213Z,24.00
2019-03-22T22:18:40.851Z,24.00
2019-03-22T22:21:10.486Z,24.10
2019-03-22T22:23:40.762Z,24.00
2019-03-22T22:26:10.492Z,24.10
2019-03-22T22:28:39.805Z,24.00
2019-03-22T22:34:04.291Z,23.90
2019-03-22T22:36:52.564Z,23.90
2019-03-22T22:39:40.860Z,23.90
2019-03-22T22:42:21.329Z,24.00
2019-03-22T22:44:50.839Z,23.90
2019-03-22T22:47:39.382Z,23.90
2019-03-22T22:50:09.120Z,23.90
2019-03-22T22:52:58.013Z,23.90
2019-03-22T22:55:46.286Z,23.90
2019-03-22T22:58:15.729Z,23.80
2019-03-22T23:00:45.031Z,23.80
2019-03-22T23:03:33.285Z,23.90
2019-03-22T23:06:21.833Z,23.80
2019-03-22T23:08:51.497Z,23.80
2019-03-22T23:11:21.303Z,23.80
2019-03-22T23:13:50.863Z,23.80
2019-03-22T23:16:39.472Z,23.80
2019-03-22T23:19:09.247Z,23.80
2019-03-22T23:21:39.058Z,23.70
2019-03-22T23:24:08.251Z,23.70
2019-03-22T23:26:37.438Z,23.70
2019-03-22T23:29:06.639Z,23.70
2019-03-22T23:31:36.565Z,23.60
2019-03-22T23:40:00.300Z,23.00
2019-03-22T23:42:30.362Z,22.70
2019-03-22T23:44:59.575Z,22.50
2019-03-22T23:47:28.831Z,22.40
2019-03-22T23:50:17.279Z,22.20
2019-03-22T23:53:05.571Z,22.10
2019-03-22T23:55:34.862Z,22.00
2019-03-22T23:58:04.119Z,21.90
